createdAt,value
2018-09-01T00:00:19.544Z,99956.98
2018-09-01T00:04:23.022Z,99962.75
2018-09-01T00:08:26.599Z,99961.42
2018-09-01T00:12:30.064Z,99970.30
2018-09-01T00:16:33.646Z,99964.61
2018-09-01T00:20:37.548Z,99961.05
2018-09-01T00:24:41.006Z,99969.20
2018-09-01T00:28:44.804Z,99966.15
2018-09-01T00:32:48.278Z,99963.54
2018-09-01T00:36:51.770Z,99963.72
2018-09-01T00:40:55.445Z,99968.73
2018-09-01T00:44:58.922Z,99963.44
2018-09-01T00:49:02.442Z,99963.86
2018-09-01T00:53:06.181Z,99966.91
2018-09-01T00:57:09.736Z,99952.26
2018-09-01T01:01:13.231Z,99953.69
2018-09-01T01:05:16.751Z,99955.13
2018-09-01T01:09:20.257Z,99945.42
2018-09-01T01:13:23.751Z,99933.02
2018-09-01T01:17:27.245Z,99916.78
2018-09-01T01:21:30.713Z,99920.98
2018-09-01T01:25:34.193Z,99928.61
2018-09-01T01:29:37.654Z,99941.03
2018-09-01T01:33:41.117Z,99996.85
2018-09-01T01:37:44.625Z,100034.70
2018-09-01T01:41:48.232Z,100045.29
2018-09-01T01:45:51.735Z,100061.52
2018-09-01T01:49:55.189Z,100045.27
2018-09-01T01:53:58.711Z,100021.88
2018-09-01T01:58:02.411Z,99993.92
2018-09-01T02:02:06.044Z,100000.64
2018-09-01T02:06:09.651Z,100042.50
2018-09-01T02:10:13.471Z,100031.91
2018-09-01T02:14:16.947Z,100021.30
2018-09-01T02:18:20.431Z,100028.92
2018-09-01T02:22:23.918Z,100016.13
2018-09-01T02:26:27.439Z,100032.19
2018-09-01T02:30:30.902Z,100042.43
2018-09-01T02:34:34.412Z,100052.59
2018-09-01T02:38:37.908Z,100072.55
2018-09-01T02:42:41.404Z,100077.02
2018-09-01T02:46:44.915Z,100065.00
2018-09-01T02:50:48.370Z,100057.11
2018-09-01T02:54:51.883Z,100051.54
2018-09-01T02:58:55.390Z,100047.80
2018-09-01T03:02:58.872Z,100056.44
2018-09-01T03:07:02.486Z,100033.05
2018-09-01T03:11:06.094Z,100075.98
2018-09-01T03:15:09.612Z,100098.84
2018-09-01T03:19:13.090Z,100092.25
2018-09-01T03:23:16.598Z,100069.72
2018-09-01T03:27:20.072Z,100120.47
2018-09-01T03:31:23.538Z,100130.70
2018-09-01T03:35:28.287Z,100080.57
2018-09-01T03:39:31.793Z,100054.87
2018-09-01T03:43:35.334Z,100070.65
2018-09-01T03:47:38.845Z,100098.25
2018-09-01T03:51:42.322Z,100116.05
2018-09-01T03:55:45.851Z,100052.70
2018-09-01T03:59:49.334Z,100047.84
2018-09-01T04:03:52.837Z,100059.12
2018-09-01T04:07:56.335Z,100062.70
2018-09-01T04:11:59.830Z,100035.31
2018-09-01T04:16:03.380Z,100048.73
2018-09-01T04:20:06.861Z,100073.20
2018-09-01T04:24:10.325Z,100060.32
2018-09-01T04:28:13.798Z,100057.66
2018-09-01T04:32:17.289Z,100055.16
2018-09-01T04:36:20.779Z,100055.38
2018-09-01T04:40:24.245Z,100065.25
2018-09-01T04:44:27.864Z,100079.96
2018-09-01T04:48:31.333Z,100096.86
2018-09-01T04:52:35.327Z,100098.66
2018-09-01T04:56:38.788Z,100084.56
2018-09-01T05:00:42.281Z,100079.73
2018-09-01T05:04:45.778Z,100078.09
2018-09-01T05:08:49.235Z,100071.05
2018-09-01T05:12:52.712Z,100076.05
2018-09-01T05:16:56.239Z,100071.25
2018-09-01T05:20:59.786Z,100087.66
2018-09-01T05:25:03.350Z,100108.41
2018-09-01T05:29:06.983Z,100131.77
2018-09-01T05:33:10.554Z,100139.21
2018-09-01T05:37:14.300Z,100136.05
2018-09-01T05:41:17.770Z,100136.95
2018-09-01T05:45:21.274Z,100104.59
2018-09-01T05:49:24.806Z,100086.73
2018-09-01T05:53:28.244Z,100100.30
2018-09-01T05:57:31.747Z,100116.20
2018-09-01T06:01:35.259Z,100156.00
2018-09-01T06:05:38.854Z,100201.20
2018-09-01T06:09:42.409Z,100195.03
2018-09-01T06:13:45.891Z,100189.69
2018-09-01T06:17:49.438Z,100180.31
2018-09-01T06:21:53.013Z,100173.58
2018-09-01T06:25:56.593Z,100181.95
2018-09-01T06:30:00.178Z,100183.17
2018-09-01T06:34:03.750Z,100184.05
2018-09-01T06:38:07.289Z,100201.00
2018-09-01T06:42:10.785Z,100199.31
2018-09-01T06:46:14.275Z,100214.77
2018-09-01T06:50:17.725Z,100224.47
2018-09-01T06:54:21.204Z,100236.87
